sensor_id;sensor_type;location;lat;lon;timestamp;pressure;altitude;pressure_sealevel;temperature;humidity
59043;BME280;44826;51.596;5.624;2023-09-30T00:02:15;102400.19;;;12.28;95.59
59043;BME280;44826;51.596;5.624;2023-09-30T00:04:41;102412.38;;;12.29;96.07
59043;BME280;44826;51.596;5.624;2023-09-30T00:07:06;102414.06;;;12.30;96.19
59043;BME280;44826;51.596;5.624;2023-09-30T00:09:31;102408.88;;;12.29;96.45
59043;BME280;44826;51.596;5.624;2023-09-30T00:11:56;102412.38;;;12.29;96.97
59043;BME280;44826;51.596;5.624;2023-09-30T00:14:22;102410.63;;;12.28;96.86
59043;BME280;44826;51.596;5.624;2023-09-30T00:16:47;102413.22;;;12.30;96.81
59043;BME280;44826;51.596;5.624;2023-09-30T00:19:13;102412.38;;;12.29;96.56
59043;BME280;44826;51.596;5.624;2023-09-30T00:21:38;102414.97;;;12.29;96.80
59043;BME280;44826;51.596;5.624;2023-09-30T00:24:04;102417.59;;;12.29;97.03
59043;BME280;44826;51.596;5.624;2023-09-30T00:26:29;102416.72;;;12.29;97.08
59043;BME280;44826;51.596;5.624;2023-09-30T00:28:54;102408.91;;;12.27;97.27
59043;BME280;44826;51.596;5.624;2023-09-30T00:31:20;102410.63;;;12.28;97.31
59043;BME280;44826;51.596;5.624;2023-09-30T00:33:45;102414.13;;;12.27;97.40
59043;BME280;44826;51.596;5.624;2023-09-30T00:36:10;102406.28;;;12.26;97.43
59043;BME280;44826;51.596;5.624;2023-09-30T00:38:37;102413.28;;;12.25;97.65
59043;BME280;44826;51.596;5.624;2023-09-30T00:41:02;102421.09;;;12.25;97.77
59043;BME280;44826;51.596;5.624;2023-09-30T00:43:28;102425.44;;;12.25;97.78
59043;BME280;44826;51.596;5.624;2023-09-30T00:46:02;102438.47;;;12.25;98.12
59043;BME280;44826;51.596;5.624;2023-09-30T00:48:31;102438.47;;;12.26;98.08
59043;BME280;44826;51.596;5.624;2023-09-30T00:50:56;102430.66;;;12.26;97.96
59043;BME280;44826;51.596;5.624;2023-09-30T00:53:22;102435.84;;;12.29;98.08
59043;BME280;44826;51.596;5.624;2023-09-30T00:55:48;102436.72;;;12.28;97.97
59043;BME280;44826;51.596;5.624;2023-09-30T00:58:13;102430.63;;;12.29;98.07
59043;BME280;44826;51.596;5.624;2023-09-30T01:00:39;102415.84;;;12.28;98.07
59043;BME280;44826;51.596;5.624;2023-09-30T01:03:05;102411.50;;;12.27;98.09
59043;BME280;44826;51.596;5.624;2023-09-30T01:05:31;102415.00;;;12.26;98.18
59043;BME280;44826;51.596;5.624;2023-09-30T01:07:56;102421.94;;;12.26;97.86
59043;BME280;44826;51.596;5.624;2023-09-30T01:10:22;102430.66;;;12.25;97.97
59043;BME280;44826;51.596;5.624;2023-09-30T01:12:47;102442.84;;;12.24;97.99
59043;BME280;44826;51.596;5.624;2023-09-30T01:15:13;102446.34;;;12.23;98.23
59043;BME280;44826;51.596;5.624;2023-09-30T01:17:38;102448.94;;;12.23;98.30
59043;BME280;44826;51.596;5.624;2023-09-30T01:20:03;102432.41;;;12.21;98.27
59043;BME280;44826;51.596;5.624;2023-09-30T01:22:33;102439.41;;;12.21;98.54
59043;BME280;44826;51.596;5.624;2023-09-30T01:24:59;102437.66;;;12.18;98.30
59043;BME280;44826;51.596;5.624;2023-09-30T01:27:24;102455.03;;;12.19;98.63
59043;BME280;44826;51.596;5.624;2023-09-30T01:29:50;102465.47;;;12.19;98.72
59043;BME280;44826;51.596;5.624;2023-09-30T01:32:16;102473.31;;;12.19;98.70
59043;BME280;44826;51.596;5.624;2023-09-30T01:34:41;102473.31;;;12.19;98.79
59043;BME280;44826;51.596;5.624;2023-09-30T01:37:07;102465.50;;;12.18;98.55
59043;BME280;44826;51.596;5.624;2023-09-30T01:39:32;102462.88;;;12.16;98.55
59043;BME280;44826;51.596;5.624;2023-09-30T01:41:58;102461.16;;;12.15;98.48
59043;BME280;44826;51.596;5.624;2023-09-30T01:44:24;102456.81;;;12.14;98.58
59043;BME280;44826;51.596;5.624;2023-09-30T01:46:51;102458.56;;;12.10;97.15
59043;BME280;44826;51.596;5.624;2023-09-30T01:49:16;102469.91;;;12.08;97.97
59043;BME280;44826;51.596;5.624;2023-09-30T01:51:43;102462.97;;;12.07;98.36
59043;BME280;44826;51.596;5.624;2023-09-30T01:54:08;102442.09;;;12.04;98.66
59043;BME280;44826;51.596;5.624;2023-09-30T01:56:33;102437.72;;;12.04;98.80
59043;BME280;44826;51.596;5.624;2023-09-30T01:58:59;102437.78;;;12.01;96.96
59043;BME280;44826;51.596;5.624;2023-09-30T02:01:24;102438.66;;;11.95;96.42
59043;BME280;44826;51.596;5.624;2023-09-30T02:03:50;102439.53;;;11.91;96.45
59043;BME280;44826;51.596;5.624;2023-09-30T02:06:15;102431.75;;;11.85;96.24
59043;BME280;44826;51.596;5.624;2023-09-30T02:08:40;102440.44;;;11.84;97.77
59043;BME280;44826;51.596;5.624;2023-09-30T02:11:07;102439.56;;;11.85;98.63
59043;BME280;44826;51.596;5.624;2023-09-30T02:13:35;102434.34;;;11.87;98.77
59043;BME280;44826;51.596;5.624;2023-09-30T02:16:01;102447.41;;;11.87;98.78
59043;BME280;44826;51.596;5.624;2023-09-30T02:18:26;102444.78;;;11.87;99.08
59043;BME280;44826;51.596;5.624;2023-09-30T02:20:52;102461.31;;;11.86;98.83
59043;BME280;44826;51.596;5.624;2023-09-30T02:23:18;102467.38;;;11.86;99.30
59043;BME280;44826;51.596;5.624;2023-09-30T02:25:44;102465.66;;;11.87;99.13
59043;BME280;44826;51.596;5.624;2023-09-30T02:28:09;102467.38;;;11.89;99.13
59043;BME280;44826;51.596;5.624;2023-09-30T02:30:35;102472.59;;;11.89;99.49
59043;BME280;44826;51.596;5.624;2023-09-30T02:33:01;102463.88;;;11.90;99.68
59043;BME280;44826;51.596;5.624;2023-09-30T02:35:26;102465.59;;;11.90;99.53
59043;BME280;44826;51.596;5.624;2023-09-30T02:37:52;102450.84;;;11.90;99.43
59043;BME280;44826;51.596;5.624;2023-09-30T02:40:18;102445.66;;;11.86;97.69
59043;BME280;44826;51.596;5.624;2023-09-30T02:42:43;102461.31;;;11.82;97.48
59043;BME280;44826;51.596;5.624;2023-09-30T02:45:10;102456.97;;;11.80;98.90
59043;BME280;44826;51.596;5.624;2023-09-30T02:47:37;102446.53;;;11.81;99.55
59043;BME280;44826;51.596;5.624;2023-09-30T02:50:04;102447.41;;;11.82;99.73
59043;BME280;44826;51.596;5.624;2023-09-30T02:52:30;102447.41;;;11.82;99.66
59043;BME280;44826;51.596;5.624;2023-09-30T02:54:55;102441.31;;;11.80;99.31
59043;BME280;44826;51.596;5.624;2023-09-30T02:57:22;102442.19;;;11.79;99.34
59043;BME280;44826;51.596;5.624;2023-09-30T02:59:47;102443.97;;;11.75;97.86
59043;BME280;44826;51.596;5.624;2023-09-30T03:02:13;102446.56;;;11.72;97.19
59043;BME280;44826;51.596;5.624;2023-09-30T03:04:38;102437.91;;;11.65;97.37
59043;BME280;44826;51.596;5.624;2023-09-30T03:07:04;102435.31;;;11.62;97.91
59043;BME280;44826;51.596;5.624;2023-09-30T03:09:29;102440.53;;;11.62;99.18
59043;BME280;44826;51.596;5.624;2023-09-30T03:11:54;102442.25;;;11.63;99.28
59043;BME280;44826;51.596;5.624;2023-09-30T03:14:24;102442.25;;;11.63;99.37
59043;BME280;44826;51.596;5.624;2023-09-30T03:16:50;102454.47;;;11.61;99.31
59043;BME280;44826;51.596;5.624;2023-09-30T03:19:15;102439.66;;;11.63;99.67
59043;BME280;44826;51.596;5.624;2023-09-30T03:21:41;102439.69;;;11.62;99.90
59043;BME280;44826;51.596;5.624;2023-09-30T03:24:07;102449.25;;;11.63;99.85
59043;BME280;44826;51.596;5.624;2023-09-30T03:26:33;102450.97;;;11.62;99.99
59043;BME280;44826;51.596;5.624;2023-09-30T03:28:58;102445.75;;;11.62;100.00
59043;BME280;44826;51.596;5.624;2023-09-30T03:31:24;102438.78;;;11.64;100.00
59043;BME280;44826;51.596;5.624;2023-09-30T03:33:50;102434.44;;;11.63;100.00
59043;BME280;44826;51.596;5.624;2023-09-30T03:36:19;102421.41;;;11.63;100.00
59043;BME280;44826;51.596;5.624;2023-09-30T03:38:44;102428.41;;;11.61;100.00
59043;BME280;44826;51.596;5.624;2023-09-30T03:41:10;102437.06;;;11.62;100.00
59043;BME280;44826;51.596;5.624;2023-09-30T03:43:38;102429.28;;;11.60;100.00
59043;BME280;44826;51.596;5.624;2023-09-30T03:46:06;102432.75;;;11.59;100.00
59043;BME280;44826;51.596;5.624;2023-09-30T03:48:31;102435.34;;;11.61;100.00
59043;BME280;44826;51.596;5.624;2023-09-30T03:50:57;102436.22;;;11.60;100.00
59043;BME280;44826;51.596;5.624;2023-09-30T03:53:22;102435.34;;;11.61;100.00
59043;BME280;44826;51.596;5.624;2023-09-30T03:55:51;102444.03;;;11.61;100.00
59043;BME280;44826;51.596;5.624;2023-09-30T03:58:16;102437.94;;;11.62;100.00
59043;BME280;44826;51.596;5.624;2023-09-30T04:00:44;102435.31;;;11.62;100.00
59043;BME280;44826;51.596;5.624;2023-09-30T04:03:09;102429.25;;;11.62;100.00
59043;BME280;44826;51.596;5.624;2023-09-30T04:05:34;102425.78;;;11.61;100.00
59043;BME280;44826;51.596;5.624;2023-09-30T04:08:02;102426.66;;;11.60;100.00
59043;BME280;44826;51.596;5.624;2023-09-30T04:10:27;102433.59;;;11.60;100.00
59043;BME280;44826;51.596;5.624;2023-09-30T04:12:55;102430.16;;;11.59;100.00
59043;BME280;44826;51.596;5.624;2023-09-30T04:15:20;102427.50;;;11.61;100.00
59043;BME280;44826;51.596;5.624;2023-09-30T04:17:45;102434.47;;;11.60;100.00
59043;BME280;44826;51.596;5.624;2023-09-30T04:20:11;102437.09;;;11.59;100.00
59043;BME280;44826;51.596;5.624;2023-09-30T04:22:41;102444.91;;;11.57;100.00
59043;BME280;44826;51.596;5.624;2023-09-30T04:25:07;102437.97;;;11.56;100.00
59043;BME280;44826;51.596;5.624;2023-09-30T04:27:37;102436.22;;;11.53;100.00
59043;BME280;44826;51.596;5.624;2023-09-30T04:30:02;102435.38;;;11.51;100.00
59043;BME280;44826;51.596;5.624;2023-09-30T04:32:34;102435.38;;;11.56;99.54
59043;BME280;44826;51.596;5.624;2023-09-30T04:34:59;102437.09;;;11.54;100.00
59043;BME280;44826;51.596;5.624;2023-09-30T04:37:25;102442.31;;;11.51;100.00
59043;BME280;44826;51.596;5.624;2023-09-30T04:39:50;102436.25;;;11.50;100.00
59043;BME280;44826;51.596;5.624;2023-09-30T04:42:15;102439.72;;;11.48;100.00
59043;BME280;44826;51.596;5.624;2023-09-30T04:44:42;102439.75;;;11.46;100.00
59043;BME280;44826;51.596;5.624;2023-09-30T04:47:08;102442.34;;;11.45;100.00
59043;BME280;44826;51.596;5.624;2023-09-30T04:49:34;102450.16;;;11.45;100.00
59043;BME280;44826;51.596;5.624;2023-09-30T04:52:00;102457.97;;;11.45;100.00
59043;BME280;44826;51.596;5.624;2023-09-30T04:54:25;102465.78;;;11.45;100.00
59043;BME280;44826;51.596;5.624;2023-09-30T04:56:50;102464.06;;;11.45;100.00
59043;BME280;44826;51.596;5.624;2023-09-30T04:59:16;102460.59;;;11.43;100.00
59043;BME280;44826;51.596;5.624;2023-09-30T05:01:42;102451.06;;;11.44;100.00
59043;BME280;44826;51.596;5.624;2023-09-30T05:04:07;102456.28;;;11.44;100.00
59043;BME280;44826;51.596;5.624;2023-09-30T05:06:32;102462.34;;;11.43;100.00
59043;BME280;44826;51.596;5.624;2023-09-30T05:08:58;102463.22;;;11.42;100.00
59043;BME280;44826;51.596;5.624;2023-09-30T05:11:24;102468.44;;;11.42;100.00
59043;BME280;44826;51.596;5.624;2023-09-30T05:13:49;102472.75;;;11.41;100.00
59043;BME280;44826;51.596;5.624;2023-09-30T05:16:14;102471.03;;;11.40;100.00
59043;BME280;44826;51.596;5.624;2023-09-30T05:18:41;102464.97;;;11.39;100.00
59043;BME280;44826;51.596;5.624;2023-09-30T05:21:07;102473.66;;;11.38;100.00
59043;BME280;44826;51.596;5.624;2023-09-30T05:23:32;102475.38;;;11.36;100.00
59043;BME280;44826;51.596;5.624;2023-09-30T05:25:57;102478.88;;;11.29;99.11
59043;BME280;44826;51.596;5.624;2023-09-30T05:28:23;102483.25;;;11.24;98.53
59043;BME280;44826;51.596;5.624;2023-09-30T05:30:48;102484.09;;;11.17;98.22
59043;BME280;44826;51.596;5.624;2023-09-30T05:33:15;102485.88;;;11.10;98.47
59043;BME280;44826;51.596;5.624;2023-09-30T05:35:42;102485.00;;;11.06;98.09
59043;BME280;44826;51.596;5.624;2023-09-30T05:38:07;102489.34;;;11.01;98.08
59043;BME280;44826;51.596;5.624;2023-09-30T05:40:33;102482.41;;;10.96;98.06
59043;BME280;44826;51.596;5.624;2023-09-30T05:42:58;102486.75;;;10.92;97.72
59043;BME280;44826;51.596;5.624;2023-09-30T05:45:25;102491.94;;;10.87;98.44
59043;BME280;44826;51.596;5.624;2023-09-30T05:47:51;102485.88;;;10.84;97.96
59043;BME280;44826;51.596;5.624;2023-09-30T05:50:18;102493.69;;;10.81;97.86
59043;BME280;44826;51.596;5.624;2023-09-30T05:52:48;102488.47;;;10.81;98.79
59043;BME280;44826;51.596;5.624;2023-09-30T05:55:14;102491.94;;;10.83;98.42
59043;BME280;44826;51.596;5.624;2023-09-30T05:57:41;102495.44;;;10.82;98.17
59043;BME280;44826;51.596;5.624;2023-09-30T06:00:11;102494.56;;;10.81;98.33
59043;BME280;44826;51.596;5.624;2023-09-30T06:02:39;102490.22;;;10.82;98.90
59043;BME280;44826;51.596;5.624;2023-09-30T06:05:05;102493.69;;;10.81;98.70
59043;BME280;44826;51.596;5.624;2023-09-30T06:07:30;102491.97;;;10.81;98.69
59043;BME280;44826;51.596;5.624;2023-09-30T06:09:56;102498.03;;;10.82;98.68
59043;BME280;44826;51.596;5.624;2023-09-30T06:12:21;102494.56;;;10.83;98.87
59043;BME280;44826;51.596;5.624;2023-09-30T06:14:46;102493.69;;;10.87;99.37
59043;BME280;44826;51.596;5.624;2023-09-30T06:17:11;102483.28;;;10.91;99.91
59043;BME280;44826;51.596;5.624;2023-09-30T06:19:37;102490.22;;;10.96;100.00
59043;BME280;44826;51.596;5.624;2023-09-30T06:22:03;102492.81;;;11.00;100.00
59043;BME280;44826;51.596;5.624;2023-09-30T06:24:28;102498.88;;;11.04;100.00
59043;BME280;44826;51.596;5.624;2023-09-30T06:26:53;102501.50;;;11.08;100.00
59043;BME280;44826;51.596;5.624;2023-09-30T06:29:18;102493.66;;;11.12;100.00
59043;BME280;44826;51.596;5.624;2023-09-30T06:31:44;102484.97;;;11.16;100.00
59043;BME280;44826;51.596;5.624;2023-09-30T06:34:10;102473.69;;;11.20;100.00
59043;BME280;44826;51.596;5.624;2023-09-30T06:36:36;102474.53;;;11.23;100.00
59043;BME280;44826;51.596;5.624;2023-09-30T06:39:03;102478.00;;;11.26;100.00
59043;BME280;44826;51.596;5.624;2023-09-30T06:41:31;102486.69;;;11.28;100.00
59043;BME280;44826;51.596;5.624;2023-09-30T06:43:56;102492.78;;;11.30;100.00
59043;BME280;44826;51.596;5.624;2023-09-30T06:46:21;102491.03;;;11.30;100.00
59043;BME280;44826;51.596;5.624;2023-09-30T06:48:49;102490.16;;;11.31;100.00
59043;BME280;44826;51.596;5.624;2023-09-30T06:51:17;102498.84;;;11.35;100.00
59043;BME280;44826;51.596;5.624;2023-09-30T06:53:42;102498.84;;;11.39;100.00
59043;BME280;44826;51.596;5.624;2023-09-30T06:56:08;102511.84;;;11.46;100.00
59043;BME280;44826;51.596;5.624;2023-09-30T06:58:33;102518.78;;;11.50;100.00
59043;BME280;44826;51.596;5.624;2023-09-30T07:00:59;102523.97;;;11.54;100.00
59043;BME280;44826;51.596;5.624;2023-09-30T07:03:24;102534.41;;;11.59;100.00
59043;BME280;44826;51.596;5.624;2023-09-30T07:05:50;102546.56;;;11.65;100.00
59043;BME280;44826;51.596;5.624;2023-09-30T07:08:18;102549.16;;;11.69;100.00
59043;BME280;44826;51.596;5.624;2023-09-30T07:10:44;102546.53;;;11.73;100.00
59043;BME280;44826;51.596;5.624;2023-09-30T07:13:11;102546.50;;;11.79;100.00
59043;BME280;44826;51.596;5.624;2023-09-30T07:15:36;102547.38;;;11.82;100.00
59043;BME280;44826;51.596;5.624;2023-09-30T07:18:02;102547.34;;;11.89;100.00
59043;BME280;44826;51.596;5.624;2023-09-30T07:20:27;102546.47;;;11.94;100.00
59043;BME280;44826;51.596;5.624;2023-09-30T07:22:54;102546.44;;;12.01;100.00
59043;BME280;44826;51.596;5.624;2023-09-30T07:25:19;102548.19;;;12.05;100.00
59043;BME280;44826;51.596;5.624;2023-09-30T07:27:45;102542.94;;;12.11;100.00
59043;BME280;44826;51.596;5.624;2023-09-30T07:30:12;102553.34;;;12.17;100.00
59043;BME280;44826;51.596;5.624;2023-09-30T07:32:41;102562.00;;;12.22;100.00
59043;BME280;44826;51.596;5.624;2023-09-30T07:35:07;102575.88;;;12.30;100.00
59043;BME280;44826;51.596;5.624;2023-09-30T07:37:33;102588.91;;;12.37;100.00
59043;BME280;44826;51.596;5.624;2023-09-30T07:39:58;102585.38;;;12.45;100.00
59043;BME280;44826;51.596;5.624;2023-09-30T07:42:24;102586.22;;;12.52;100.00
59043;BME280;44826;51.596;5.624;2023-09-30T07:44:50;102590.53;;;12.58;100.00
59043;BME280;44826;51.596;5.624;2023-09-30T07:47:15;102593.97;;;12.63;100.00
59043;BME280;44826;51.596;5.624;2023-09-30T07:49:40;102598.28;;;12.69;100.00
59043;BME280;44826;51.596;5.624;2023-09-30T07:52:05;102597.41;;;12.73;100.00
59043;BME280;44826;51.596;5.624;2023-09-30T07:54:31;102593.91;;;12.77;100.00
59043;BME280;44826;51.596;5.624;2023-09-30T07:56:56;102587.75;;;12.81;100.00
59043;BME280;44826;51.596;5.624;2023-09-30T07:59:22;102584.25;;;12.85;100.00
59043;BME280;44826;51.596;5.624;2023-09-30T08:01:48;102576.38;;;12.90;100.00
59043;BME280;44826;51.596;5.624;2023-09-30T08:04:13;102579.81;;;12.95;100.00
59043;BME280;44826;51.596;5.624;2023-09-30T08:06:38;102579.78;;;13.01;100.00
59043;BME280;44826;51.596;5.624;2023-09-30T08:09:04;102578.00;;;13.05;100.00
59043;BME280;44826;51.596;5.624;2023-09-30T08:11:35;102577.97;;;13.11;100.00
59043;BME280;44826;51.596;5.624;2023-09-30T08:14:02;102579.63;;;13.18;100.00
59043;BME280;44826;51.596;5.624;2023-09-30T08:16:31;102588.28;;;13.25;100.00
59043;BME280;44826;51.596;5.624;2023-09-30T08:18:56;102579.53;;;13.31;100.00
59043;BME280;44826;51.596;5.624;2023-09-30T08:21:22;102573.38;;;13.35;100.00
59043;BME280;44826;51.596;5.624;2023-09-30T08:23:47;102576.88;;;13.40;100.00
59043;BME280;44826;51.596;5.624;2023-09-30T08:26:12;102577.69;;;13.44;100.00
59043;BME280;44826;51.596;5.624;2023-09-30T08:28:37;102568.09;;;13.47;100.00
59043;BME280;44826;51.596;5.624;2023-09-30T08:31:04;102568.03;;;13.50;100.00
59043;BME280;44826;51.596;5.624;2023-09-30T08:33:30;102569.72;;;13.58;100.00
59043;BME280;44826;51.596;5.624;2023-09-30T08:35:56;102571.41;;;13.62;100.00
59043;BME280;44826;51.596;5.624;2023-09-30T08:38:23;102559.13;;;13.67;100.00
59043;BME280;44826;51.596;5.624;2023-09-30T08:40:51;102554.75;;;13.71;100.00
59043;BME280;44826;51.596;5.624;2023-09-30T08:43:20;102560.81;;;13.74;100.00
59043;BME280;44826;51.596;5.624;2023-09-30T08:45:53;102559.00;;;13.81;100.00
59043;BME280;44826;51.596;5.624;2023-09-30T08:48:20;102563.28;;;13.88;100.00
59043;BME280;44826;51.596;5.624;2023-09-30T08:50:45;102558.84;;;13.93;100.00
59043;BME280;44826;51.596;5.624;2023-09-30T08:53:12;102561.34;;;14.01;100.00
59043;BME280;44826;51.596;5.624;2023-09-30T08:55:41;102562.19;;;14.06;100.00
59043;BME280;44826;51.596;5.624;2023-09-30T08:58:08;102546.41;;;14.13;100.00
59043;BME280;44826;51.596;5.624;2023-09-30T09:00:33;102541.94;;;14.19;100.00
59043;BME280;44826;51.596;5.624;2023-09-30T09:02:59;102557.59;;;14.25;100.00
59043;BME280;44826;51.596;5.624;2023-09-30T09:05:24;102554.84;;;14.33;100.00
59043;BME280;44826;51.596;5.624;2023-09-30T09:07:49;102546.94;;;14.36;100.00
59043;BME280;44826;51.596;5.624;2023-09-30T09:10:15;102557.28;;;14.44;100.00
59043;BME280;44826;51.596;5.624;2023-09-30T09:12:41;102560.75;;;14.48;100.00
59043;BME280;44826;51.596;5.624;2023-09-30T09:15:11;102569.38;;;14.53;100.00
59043;BME280;44826;51.596;5.624;2023-09-30T09:17:45;102585.91;;;14.58;100.00
59043;BME280;44826;51.596;5.624;2023-09-30T09:20:11;102585.84;;;14.64;100.00
59043;BME280;44826;51.596;5.624;2023-09-30T09:22:43;102588.41;;;14.69;100.00
59043;BME280;44826;51.596;5.624;2023-09-30T09:25:10;102600.59;;;14.73;99.52
59043;BME280;44826;51.596;5.624;2023-09-30T09:27:35;102592.66;;;14.78;99.68
59043;BME280;44826;51.596;5.624;2023-09-30T09:30:21;102597.81;;;14.84;100.00
59043;BME280;44826;51.596;5.624;2023-09-30T09:33:01;102597.72;;;14.87;100.00
59043;BME280;44826;51.596;5.624;2023-09-30T09:35:27;102602.03;;;14.91;99.49
59043;BME280;44826;51.596;5.624;2023-09-30T09:38:07;102610.72;;;14.95;98.57
59043;BME280;44826;51.596;5.624;2023-09-30T09:40:34;102623.75;;;14.99;98.13
59043;BME280;44826;51.596;5.624;2023-09-30T09:43:01;102626.31;;;15.04;97.84
59043;BME280;44826;51.596;5.624;2023-09-30T09:45:32;102621.81;;;15.11;98.34
59043;BME280;44826;51.596;5.624;2023-09-30T09:47:58;102622.63;;;15.16;96.42
59043;BME280;44826;51.596;5.624;2023-09-30T09:50:23;102623.44;;;15.20;95.33
59043;BME280;44826;51.596;5.624;2023-09-30T09:52:53;102623.34;;;15.24;94.82
59043;BME280;44826;51.596;5.624;2023-09-30T09:55:24;102614.56;;;15.28;95.12
59043;BME280;44826;51.596;5.624;2023-09-30T09:57:50;102624.06;;;15.34;94.38
59043;BME280;44826;51.596;5.624;2023-09-30T10:00:18;102616.09;;;15.39;93.37
59043;BME280;44826;51.596;5.624;2023-09-30T10:02:45;102623.03;;;15.43;93.03
59043;BME280;44826;51.596;5.624;2023-09-30T10:05:12;102625.56;;;15.47;92.89
59043;BME280;44826;51.596;5.624;2023-09-30T10:07:40;102629.88;;;15.53;91.54
59043;BME280;44826;51.596;5.624;2023-09-30T10:10:13;102621.91;;;15.56;90.99
59043;BME280;44826;51.596;5.624;2023-09-30T10:12:40;102627.13;;;15.59;91.56
59043;BME280;44826;51.596;5.624;2023-09-30T10:18:09;102631.31;;;15.70;92.08
59043;BME280;44826;51.596;5.624;2023-09-30T10:20:42;102646.97;;;15.73;90.99
59043;BME280;44826;51.596;5.624;2023-09-30T10:23:28;102645.13;;;15.80;91.82
59043;BME280;44826;51.596;5.624;2023-09-30T10:28:36;102631.84;;;15.89;88.35
59043;BME280;44826;51.596;5.624;2023-09-30T10:31:19;102620.38;;;15.95;89.36
59043;BME280;44826;51.596;5.624;2023-09-30T10:36:31;102618.53;;;16.00;89.34
59043;BME280;44826;51.596;5.624;2023-09-30T10:38:57;102599.25;;;16.01;88.61
59043;BME280;44826;51.596;5.624;2023-09-30T10:44:40;102596.41;;;16.10;89.10
59043;BME280;44826;51.596;5.624;2023-09-30T10:49:49;102585.91;;;16.12;86.60
59043;BME280;44826;51.596;5.624;2023-09-30T10:52:21;102597.19;;;16.15;86.95
59043;BME280;44826;51.596;5.624;2023-09-30T10:54:49;102595.41;;;16.17;86.67
59043;BME280;44826;51.596;5.624;2023-09-30T10:57:26;102597.09;;;16.21;87.07
59043;BME280;44826;51.596;5.624;2023-09-30T11:00:10;102590.00;;;16.25;85.97
59043;BME280;44826;51.596;5.624;2023-09-30T11:02:48;102592.50;;;16.30;84.47
59043;BME280;44826;51.596;5.624;2023-09-30T11:05:13;102581.94;;;16.33;82.86
59043;BME280;44826;51.596;5.624;2023-09-30T11:07:39;102580.09;;;16.38;84.53
59043;BME280;44826;51.596;5.624;2023-09-30T11:10:07;102594.00;;;16.42;81.21
59043;BME280;44826;51.596;5.624;2023-09-30T11:12:32;102587.78;;;16.46;81.21
59043;BME280;44826;51.596;5.624;2023-09-30T11:15:00;102580.63;;;16.52;82.06
59043;BME280;44826;51.596;5.624;2023-09-30T11:17:26;102585.81;;;16.56;80.56
59043;BME280;44826;51.596;5.624;2023-09-30T11:19:51;102587.50;;;16.58;81.42
59043;BME280;44826;51.596;5.624;2023-09-30T11:22:17;102585.66;;;16.62;81.17
59043;BME280;44826;51.596;5.624;2023-09-30T11:24:43;102591.63;;;16.68;80.18
59043;BME280;44826;51.596;5.624;2023-09-30T11:27:10;102585.38;;;16.74;79.77
59043;BME280;44826;51.596;5.624;2023-09-30T11:29:36;102579.97;;;16.80;78.76
59043;BME280;44826;51.596;5.624;2023-09-30T11:32:01;102589.41;;;16.89;80.60
59043;BME280;44826;51.596;5.624;2023-09-30T11:34:33;102577.91;;;16.95;79.99
59043;BME280;44826;51.596;5.624;2023-09-30T11:37:00;102589.13;;;17.02;79.96
59043;BME280;44826;51.596;5.624;2023-09-30T11:39:28;102579.31;;;17.08;81.27
59043;BME280;44826;51.596;5.624;2023-09-30T11:41:54;102568.72;;;17.11;78.46
59043;BME280;44826;51.596;5.624;2023-09-30T11:44:25;102553.81;;;17.12;77.73
59043;BME280;44826;51.596;5.624;2023-09-30T11:46:55;102559.84;;;17.16;80.54
59043;BME280;44826;51.596;5.624;2023-09-30T11:49:43;102557.97;;;17.21;81.24
59043;BME280;44826;51.596;5.624;2023-09-30T11:52:14;102557.16;;;17.19;77.02
59043;BME280;44826;51.596;5.624;2023-09-30T11:54:44;102551.91;;;17.17;76.02
59043;BME280;44826;51.596;5.624;2023-09-30T11:57:11;102561.50;;;17.20;75.96
59043;BME280;44826;51.596;5.624;2023-09-30T11:59:38;102547.41;;;17.22;75.73
59043;BME280;44826;51.596;5.624;2023-09-30T12:02:04;102560.41;;;17.28;75.61
59043;BME280;44826;51.596;5.624;2023-09-30T12:04:34;102564.72;;;17.31;75.00
59043;BME280;44826;51.596;5.624;2023-09-30T12:06:59;102579.47;;;17.37;74.10
59043;BME280;44826;51.596;5.624;2023-09-30T12:09:25;102577.63;;;17.40;72.74
59043;BME280;44826;51.596;5.624;2023-09-30T12:11:53;102575.72;;;17.45;72.79
59043;BME280;44826;51.596;5.624;2023-09-30T12:14:20;102578.97;;;17.55;73.51
59043;BME280;44826;51.596;5.624;2023-09-30T12:16:46;102575.22;;;17.64;71.87
59043;BME280;44826;51.596;5.624;2023-09-30T12:19:12;102578.63;;;17.68;70.15
59043;BME280;44826;51.596;5.624;2023-09-30T12:21:39;102566.25;;;17.71;70.77
59043;BME280;44826;51.596;5.624;2023-09-30T12:24:05;102567.84;;;17.77;69.79
59043;BME280;44826;51.596;5.624;2023-09-30T12:26:33;102555.44;;;17.82;71.89
59043;BME280;44826;51.596;5.624;2023-09-30T12:28:58;102551.00;;;17.83;70.05
59043;BME280;44826;51.596;5.624;2023-09-30T12:31:23;102547.47;;;17.84;71.41
59043;BME280;44826;51.596;5.624;2023-09-30T12:33:49;102535.03;;;17.89;70.45
59043;BME280;44826;51.596;5.624;2023-09-30T12:36:17;102535.88;;;17.89;68.05
59043;BME280;44826;51.596;5.624;2023-09-30T12:38:42;102533.31;;;17.88;70.92
59043;BME280;44826;51.596;5.624;2023-09-30T12:41:07;102519.28;;;17.87;66.58
59043;BME280;44826;51.596;5.624;2023-09-30T12:43:33;102518.44;;;17.87;65.54
59043;BME280;44826;51.596;5.624;2023-09-30T12:45:58;102514.00;;;17.87;62.26
59043;BME280;44826;51.596;5.624;2023-09-30T12:48:24;102517.31;;;17.94;64.56
59043;BME280;44826;51.596;5.624;2023-09-30T12:50:50;102518.91;;;18.01;65.60
59043;BME280;44826;51.596;5.624;2023-09-30T12:53:15;102511.66;;;18.10;67.07
59043;BME280;44826;51.596;5.624;2023-09-30T12:55:41;102521.97;;;18.16;65.68
59043;BME280;44826;51.596;5.624;2023-09-30T12:58:06;102516.53;;;18.22;67.59